Aérodrome :
LOGIN :

S'inscrire | Disclaimer

   EN    FR    IT 

 










Légende :    VFR   VFR Marginal   IFR   IFR Intensif   IFR Très Intensif
Visi : 
Plafond : 
>= 8 km
>= 3000ft
5 à 8 km
1000 à 3000 ft
1500m à 5 km
500 à 1000 ft
800 à 1500m
200 à 500 ft
< 800m
< 200 ft
Symboles :   Orages  Brouillard  Fortes neiges  Fortes précipitations  Vent > 20 kt
SIGMETs :   Divers  Orages  Givrage  Turbulence  Onde Orograph.  Cendres Volcan.






- Altitude de l'aérodrome : 386 ft
- Code IATA : QOE


ETNN - Nörvenich Airforce Base

DERNIER METAR :
  • 041020Z 30007KT 9999 SCT035 19/09 Q1017 BLU+BLU+

METARs EXPIRÉS :
  • 040920Z 29007KT 9999 BKN027 18/10 Q1017 BLU BLU BECMG BLU+
  • 040902Z 33005KT 9999 BKN026 18/11 Q1017 BLU BLU BECMG BLU+
  • 040838Z 34005KT 9999 BKN020 18/11 Q1017 WHT WHT BECMG BLU+

TAF TAF ETNN
Valide du 04 à 11h jusqu'au 04 à 20h UTC


041019Z 0411/0420 31007KT 9999 NSW SCT040 BY ETGL



MET'MAP, la Météo Aéronautique d'un coup d'oeil ! - Copyright ORBIFLY Décembre 2007 - Disclaimer

ORBIFLY MET'MAP TEAM :

Programmation & Développement : Alexandra Zaïnal
Sur une idée originale de : Baudouin d'Aumeries
Assistance à la programmation : Marc-Olivier Méhu
Soutien technique & logistique : Manuel Goepfert

Contact : metmap@orbifly.com




SOURCES & CREDITS :

   NOAA